SBCG/CGR METAR and TAF weather

Enter ICAO airport designator
Station Type Date Time Source
SBCG METAR 2019/02/17 15:00 UTC NOAA

SBCG 171500Z 28008KT 220V340 9999 BKN045 FEW050TCU 28/18 Q1012


Station Type Date Time Source
SBCG Decoded METAR 2019/02/17 15:00 UTC NOAA

Campo Grande Aeroporto , Brazil (SBCG) 20-28S 054-40W 567M
Feb 17, 2019 - 10:00 AM EST / 2019.02.17 1500 UTC
Wind: from the W (280 degrees) at 9 MPH (8 KT) (direction variable):0
Visibility: greater than 7 mile(s):0
Sky conditions: mostly cloudy
Weather: Towering cumulus clouds observed
Temperature: 82 F (28 C)
Dew Point: 64 F (18 C)
Relative Humidity: 54%
Pressure (altimeter): 29.88 in. Hg (1012 hPa)
ob: SBCG 171500Z 28008KT 220V340 9999 BKN045 FEW050TCU 28/18 Q1012
cycle: 15

Station Type Date Time Source
SBCG TAF 2019/02/17 18:39 UTC NOAA

TAF SBCG 171530Z 1718/1818 31005KT 9999 SCT040 FEW045TCU TX32/1718Z T N18/1808Z
BECMG 1722/1724 CAVOK
BECMG 1804/1806 3000 BR BKN005
BECMG 1810/1812 9999 NSW FEW012
BECMG 1814/1817 04008KT SCT030 FEW035TCU
RMK PEB


Example: see airport list